Terminal Aerodrome Forecast
Issued by NWS

Current Version | Previous Version | Text Only | Print | Product List | Glossary On
Versions: 1 2 3 4 5 6 7 8 9 10 11 12 13 14 15 16 17 18 19 20
000 FTUS41 KBOX 160312 AAA TAFBAF TAF AMD KBAF 160312Z 1603/1624 32014G27KT P6SM -RAPL OVC030 FM160430 32015G23KT 3SM -PLSN OVC015 FM160700 32014G23KT P6SM BKN040 FM160900 32013G24KT P6SM SCT250 FM162000 34012KT P6SM SKC=

USA.gov is the U.S. government's official web portal to all federal, state and local government web resources and services.